RYR1TH LGRP-EGPH
Flight info
| Callsign | RYR1TH |
|---|---|
| Flight time | N/A |
| Altitude | 36000 |
| Route | VANES UM601 ADESO UN133 RIGRO DCT EVIVI L863 OKANA DCT NEPOS DCT IRGOR DCT TONDO DCT GITAS DCT TEKNO DCT BEGLA DCT FMD DCT DITIS DCT VEXIL DCT KATCE DCT AMSAN DCT SUPUR L602 EMLON M79 TENDO DCT NATEB Y96 AGPED |
| Aircraft | B738/M-SDE3FGILRWY/SB1 |
Departure
| Time | 2026-04-27 19:27 |
|---|---|
| Airport | Rhodes International Airport "Diagoras" (LGRP) |
Arrival
| Time | N/A |
|---|---|
| Airport | Edinburgh Airport (EGPH) |
| Time | Latitude | Longitude | Altitude | Speed | Heading |
|---|---|---|---|---|---|
| 2026-04-27 18:52 | 36.40355 | 28.09089 | 27 ft | 0 kts | 160° |
| 2026-04-27 19:13 | 36.40362 | 28.09086 | 27 ft | 4 kts | 158° |
| 2026-04-27 19:13 | 36.40386 | 28.09071 | 27 ft | 4 kts | 142° |
| 2026-04-27 19:14 | 36.40404 | 28.09048 | 27 ft | 4 kts | 110° |
| 2026-04-27 19:14 | 36.40406 | 28.09026 | 27 ft | 0 kts | 70° |
| 2026-04-27 19:16 | 36.40406 | 28.09027 | 27 ft | 0 kts | 70° |
| 2026-04-27 19:16 | 36.40411 | 28.09044 | 27 ft | 5 kts | 70° |
| 2026-04-27 19:17 | 36.40428 | 28.09102 | 27 ft | 10 kts | 70° |
| 2026-04-27 19:17 | 36.40457 | 28.09200 | 27 ft | 14 kts | 70° |
| 2026-04-27 19:17 | 36.40498 | 28.09328 | 27 ft | 17 kts | 57° |
| 2026-04-27 19:17 | 36.40588 | 28.09426 | 27 ft | 17 kts | 54° |
| 2026-04-27 19:18 | 36.40631 | 28.09561 | 27 ft | 17 kts | 70° |
| 2026-04-27 19:18 | 36.40674 | 28.09708 | 27 ft | 19 kts | 70° |
| 2026-04-27 19:18 | 36.40723 | 28.09874 | 27 ft | 22 kts | 70° |
| 2026-04-27 19:18 | 36.40779 | 28.10063 | 27 ft | 24 kts | 70° |
| 2026-04-27 19:19 | 36.40835 | 28.10255 | 27 ft | 23 kts | 70° |
| 2026-04-27 19:19 | 36.40877 | 28.10399 | 27 ft | 12 kts | 69° |
| 2026-04-27 19:19 | 36.40943 | 28.10431 | 27 ft | 11 kts | 342° |
| 2026-04-27 19:19 | 36.40995 | 28.10362 | 30 ft | 11 kts | 294° |
| 2026-04-27 19:20 | 36.41019 | 28.10272 | 26 ft | 11 kts | 269° |
| 2026-04-27 19:20 | 36.40997 | 28.10183 | 26 ft | 12 kts | 250° |
| 2026-04-27 19:20 | 36.40953 | 28.10034 | 28 ft | 25 kts | 249° |
| 2026-04-27 19:20 | 36.40882 | 28.09792 | 29 ft | 35 kts | 249° |
| 2026-04-27 19:21 | 36.40793 | 28.09486 | 29 ft | 39 kts | 250° |
| 2026-04-27 19:21 | 36.40700 | 28.09215 | 30 ft | 26 kts | 234° |
| 2026-04-27 19:21 | 36.40570 | 28.09100 | 28 ft | 12 kts | 205° |
| 2026-04-27 19:21 | 36.40499 | 28.09057 | 27 ft | 11 kts | 206° |
| 2026-04-27 19:22 | 36.40435 | 28.09054 | 27 ft | 10 kts | 136° |
| 2026-04-27 19:22 | 36.40437 | 28.09133 | 27 ft | 10 kts | 69° |
| 2026-04-27 19:22 | 36.40460 | 28.09209 | 27 ft | 9 kts | 70° |
| 2026-04-27 19:22 | 36.40481 | 28.09284 | 27 ft | 9 kts | 70° |
| 2026-04-27 19:23 | 36.40512 | 28.09350 | 27 ft | 9 kts | 45° |
| 2026-04-27 19:23 | 36.40562 | 28.09392 | 27 ft | 9 kts | 34° |
| 2026-04-27 19:23 | 36.40598 | 28.09450 | 27 ft | 9 kts | 66° |
| 2026-04-27 19:23 | 36.40620 | 28.09523 | 27 ft | 10 kts | 70° |
| 2026-04-27 19:24 | 36.40646 | 28.09612 | 27 ft | 12 kts | 70° |
| 2026-04-27 19:24 | 36.40679 | 28.09724 | 27 ft | 15 kts | 70° |
| 2026-04-27 19:24 | 36.40719 | 28.09860 | 27 ft | 18 kts | 70° |
| 2026-04-27 19:24 | 36.40765 | 28.10013 | 27 ft | 19 kts | 66° |
| 2026-04-27 19:25 | 36.40811 | 28.10172 | 27 ft | 20 kts | 67° |
| 2026-04-27 19:25 | 36.40850 | 28.10307 | 27 ft | 15 kts | 70° |
| 2026-04-27 19:25 | 36.40889 | 28.10422 | 27 ft | 13 kts | 50° |
| 2026-04-27 19:25 | 36.40968 | 28.10415 | 27 ft | 13 kts | 324° |
| 2026-04-27 19:26 | 36.41016 | 28.10311 | 31 ft | 15 kts | 294° |
| 2026-04-27 19:26 | 36.40997 | 28.10184 | 26 ft | 18 kts | 249° |
| 2026-04-27 19:26 | 36.40941 | 28.09993 | 28 ft | 32 kts | 248° |
| 2026-04-27 19:26 | 36.40787 | 28.09466 | 29 ft | 98 kts | 249° |
| 2026-04-27 19:27 | 36.40489 | 28.08450 | 27 ft | 154 kts | 249° |
| 2026-04-27 19:27 | 36.40098 | 28.07107 | 456 ft | 170 kts | 250° |
| 2026-04-27 19:27 | 36.39737 | 28.05676 | 1123 ft | 178 kts | 259° |
| 2026-04-27 19:27 | 36.39611 | 28.04091 | 1734 ft | 191 kts | 265° |
| 2026-04-27 19:28 | 36.39519 | 28.02326 | 2002 ft | 218 kts | 266° |
| 2026-04-27 19:28 | 36.39410 | 28.00361 | 2340 ft | 235 kts | 266° |
| 2026-04-27 19:28 | 36.39282 | 27.98308 | 2886 ft | 244 kts | 266° |
| 2026-04-27 19:28 | 36.39131 | 27.96141 | 3201 ft | 263 kts | 266° |
| 2026-04-27 19:29 | 36.38968 | 27.93836 | 3890 ft | 270 kts | 266° |
| 2026-04-27 19:29 | 36.38795 | 27.91505 | 4777 ft | 272 kts | 266° |
| 2026-04-27 19:29 | 36.38613 | 27.89156 | 5617 ft | 275 kts | 265° |
| 2026-04-27 19:29 | 36.38428 | 27.86781 | 6436 ft | 278 kts | 266° |
| 2026-04-27 19:30 | 36.38322 | 27.84368 | 7220 ft | 281 kts | 271° |
| 2026-04-27 19:30 | 36.38360 | 27.81956 | 7985 ft | 284 kts | 272° |
| 2026-04-27 19:30 | 36.38411 | 27.79485 | 8740 ft | 288 kts | 272° |
| 2026-04-27 19:30 | 36.38452 | 27.76978 | 9492 ft | 292 kts | 272° |
| 2026-04-27 19:31 | 36.38485 | 27.74440 | 10248 ft | 295 kts | 271° |
| 2026-04-27 19:31 | 36.38571 | 27.71828 | 10545 ft | 315 kts | 277° |
| 2026-04-27 19:31 | 36.38881 | 27.69029 | 10739 ft | 337 kts | 279° |
| 2026-04-27 19:31 | 36.39277 | 27.66114 | 11088 ft | 352 kts | 281° |
| 2026-04-27 19:32 | 36.39698 | 27.63088 | 11729 ft | 357 kts | 280° |
| 2026-04-27 19:32 | 36.40113 | 27.60035 | 12488 ft | 358 kts | 280° |
| 2026-04-27 19:32 | 36.40518 | 27.56973 | 13226 ft | 360 kts | 280° |
| 2026-04-27 19:32 | 36.40913 | 27.53900 | 13933 ft | 362 kts | 279° |
| 2026-04-27 19:33 | 36.41308 | 27.50792 | 14611 ft | 365 kts | 279° |
| 2026-04-27 19:33 | 36.41435 | 27.49784 | 14825 ft | 366 kts | 279° |
| 2026-04-27 19:33 | 36.42087 | 27.44559 | 15933 ft | 370 kts | 279° |
| 2026-04-27 19:33 | 36.42480 | 27.41383 | 16580 ft | 372 kts | 279° |
| 2026-04-27 19:34 | 36.42874 | 27.38199 | 17206 ft | 375 kts | 279° |
| 2026-04-27 19:34 | 36.43136 | 27.36070 | 17605 ft | 377 kts | 279° |
| 2026-04-27 19:34 | 36.43533 | 27.32840 | 18184 ft | 380 kts | 279° |
| 2026-04-27 19:34 | 36.43933 | 27.29586 | 18778 ft | 382 kts | 279° |
| 2026-04-27 19:35 | 36.44333 | 27.26317 | 19355 ft | 384 kts | 279° |
| 2026-04-27 19:35 | 36.44736 | 27.23018 | 19877 ft | 388 kts | 279° |
| 2026-04-27 19:35 | 36.45141 | 27.19693 | 20406 ft | 390 kts | 279° |
| 2026-04-27 19:35 | 36.45548 | 27.16343 | 20919 ft | 393 kts | 279° |
| 2026-04-27 19:36 | 36.45957 | 27.12973 | 21422 ft | 395 kts | 279° |
| 2026-04-27 19:36 | 36.46367 | 27.09588 | 21900 ft | 398 kts | 279° |
| 2026-04-27 19:36 | 36.46780 | 27.06179 | 22363 ft | 400 kts | 279° |
| 2026-04-27 19:36 | 36.47199 | 27.02783 | 22800 ft | 403 kts | 280° |
| 2026-04-27 19:37 | 36.47632 | 26.99338 | 23269 ft | 405 kts | 280° |
| 2026-04-27 19:37 | 36.48070 | 26.95861 | 23722 ft | 407 kts | 280° |
| 2026-04-27 19:37 | 36.48506 | 26.92371 | 24116 ft | 410 kts | 280° |
| 2026-04-27 19:37 | 36.48942 | 26.88854 | 24519 ft | 413 kts | 279° |
| 2026-04-27 19:38 | 36.49363 | 26.85307 | 24926 ft | 414 kts | 279° |
| 2026-04-27 19:38 | 36.49771 | 26.81788 | 25301 ft | 417 kts | 279° |
| 2026-04-27 19:38 | 36.50183 | 26.78209 | 25673 ft | 419 kts | 279° |
| 2026-04-27 19:38 | 36.50598 | 26.74609 | 26032 ft | 422 kts | 279° |
| 2026-04-27 19:39 | 36.51016 | 26.70985 | 26392 ft | 424 kts | 279° |
| 2026-04-27 19:39 | 36.51436 | 26.67345 | 26734 ft | 426 kts | 279° |
| 2026-04-27 19:39 | 36.51860 | 26.63683 | 27065 ft | 428 kts | 279° |
| 2026-04-27 19:39 | 36.52282 | 26.60011 | 27420 ft | 429 kts | 279° |
| 2026-04-27 19:40 | 36.52757 | 26.56398 | 27747 ft | 430 kts | 285° |
| 2026-04-27 19:40 | 36.53955 | 26.53011 | 27985 ft | 432 kts | 304° |
| 2026-04-27 19:40 | 36.55900 | 26.50147 | 28320 ft | 434 kts | 317° |
| 2026-04-27 19:40 | 36.58373 | 26.47965 | 28595 ft | 438 kts | 331° |
| 2026-04-27 19:41 | 36.61121 | 26.46314 | 28911 ft | 439 kts | 334° |
| 2026-04-27 19:41 | 36.63919 | 26.44732 | 29159 ft | 442 kts | 334° |
| 2026-04-27 19:41 | 36.66735 | 26.43157 | 29452 ft | 443 kts | 334° |
| 2026-04-27 19:41 | 36.69544 | 26.41571 | 29852 ft | 441 kts | 334° |
| 2026-04-27 19:42 | 36.72332 | 26.39973 | 30238 ft | 440 kts | 334° |
| 2026-04-27 19:42 | 36.75072 | 26.38383 | 30567 ft | 439 kts | 333° |
| 2026-04-27 19:42 | 36.77841 | 26.36763 | 30920 ft | 438 kts | 333° |
| 2026-04-27 19:42 | 36.80605 | 26.35141 | 31276 ft | 437 kts | 333° |
| 2026-04-27 19:43 | 36.83359 | 26.33522 | 31636 ft | 436 kts | 333° |
| 2026-04-27 19:43 | 36.86101 | 26.31909 | 31982 ft | 434 kts | 333° |
| 2026-04-27 19:43 | 36.88805 | 26.30319 | 32281 ft | 434 kts | 333° |
| 2026-04-27 19:43 | 36.91540 | 26.28708 | 32548 ft | 434 kts | 333° |
| 2026-04-27 19:44 | 36.94277 | 26.27096 | 32860 ft | 433 kts | 333° |
| 2026-04-27 19:44 | 36.97006 | 26.25488 | 33190 ft | 431 kts | 333° |
| 2026-04-27 19:44 | 36.99684 | 26.23898 | 33503 ft | 430 kts | 332° |
| 2026-04-27 19:44 | 37.02381 | 26.22264 | 33753 ft | 430 kts | 332° |
| 2026-04-27 19:45 | 37.05064 | 26.20622 | 33987 ft | 430 kts | 332° |
| 2026-04-27 19:45 | 37.07753 | 26.18970 | 34259 ft | 429 kts | 332° |
| 2026-04-27 19:45 | 37.10438 | 26.17321 | 34538 ft | 428 kts | 332° |
| 2026-04-27 19:45 | 37.13121 | 26.15676 | 34761 ft | 428 kts | 332° |
| 2026-04-27 19:46 | 37.15799 | 26.14033 | 34971 ft | 429 kts | 332° |
| 2026-04-27 19:46 | 37.18479 | 26.12390 | 35222 ft | 428 kts | 332° |
| 2026-04-27 19:46 | 37.21121 | 26.10770 | 35471 ft | 427 kts | 332° |
| 2026-04-27 19:46 | 37.23785 | 26.09135 | 35707 ft | 426 kts | 331° |
| 2026-04-27 19:47 | 37.26451 | 26.07497 | 35863 ft | 427 kts | 331° |
| 2026-04-27 19:47 | 37.29118 | 26.05858 | 36029 ft | 427 kts | 331° |
| 2026-04-27 19:47 | 37.31809 | 26.04203 | 36028 ft | 431 kts | 331° |
| 2026-04-27 19:48 | 37.37203 | 26.00882 | 36050 ft | 431 kts | 332° |
| 2026-04-27 19:48 | 37.42522 | 25.97603 | 36050 ft | 425 kts | 331° |
| 2026-04-27 19:49 | 37.47816 | 25.94328 | 36062 ft | 423 kts | 331° |
| 2026-04-27 19:49 | 37.53094 | 25.91063 | 36072 ft | 421 kts | 331° |
| 2026-04-27 19:50 | 37.58346 | 25.87808 | 36076 ft | 420 kts | 331° |
| 2026-04-27 19:50 | 37.63599 | 25.84620 | 36075 ft | 421 kts | 332° |
| 2026-04-27 19:51 | 37.68908 | 25.81459 | 36081 ft | 423 kts | 332° |
| 2026-04-27 19:51 | 37.74249 | 25.78275 | 36078 ft | 425 kts | 332° |
| 2026-04-27 19:52 | 37.79578 | 25.75083 | 36079 ft | 427 kts | 332° |
| 2026-04-27 19:52 | 37.84966 | 25.71848 | 36077 ft | 429 kts | 332° |
| 2026-04-27 19:53 | 37.93079 | 25.66959 | 36075 ft | 431 kts | 332° |
| 2026-04-27 19:53 | 37.98458 | 25.63713 | 36070 ft | 431 kts | 332° |
| 2026-04-27 19:54 | 38.03876 | 25.60437 | 36074 ft | 430 kts | 332° |
| 2026-04-27 19:54 | 38.09287 | 25.57160 | 36073 ft | 430 kts | 332° |
| 2026-04-27 19:55 | 38.14696 | 25.53881 | 36073 ft | 429 kts | 332° |
| 2026-04-27 19:55 | 38.20062 | 25.50621 | 36072 ft | 428 kts | 332° |
| 2026-04-27 19:56 | 38.25438 | 25.47350 | 36073 ft | 427 kts | 332° |
| 2026-04-27 19:56 | 38.30774 | 25.44098 | 36073 ft | 427 kts | 332° |
| 2026-04-27 19:57 | 38.36124 | 25.40831 | 36076 ft | 426 kts | 332° |
| 2026-04-27 19:57 | 38.41470 | 25.37563 | 36082 ft | 425 kts | 332° |
| 2026-04-27 19:58 | 38.46818 | 25.34287 | 36086 ft | 424 kts | 332° |
| 2026-04-27 19:58 | 38.52107 | 25.31041 | 36093 ft | 424 kts | 332° |
| 2026-04-27 19:59 | 38.57439 | 25.27765 | 36093 ft | 425 kts | 332° |
| 2026-04-27 19:59 | 38.62783 | 25.24473 | 36097 ft | 426 kts | 332° |
| 2026-04-27 20:00 | 38.68108 | 25.21190 | 36094 ft | 427 kts | 332° |
| 2026-04-27 20:00 | 38.73470 | 25.17879 | 36101 ft | 427 kts | 332° |
| 2026-04-27 20:01 | 38.78797 | 25.14583 | 36103 ft | 428 kts | 331° |
| 2026-04-27 20:01 | 38.84174 | 25.11252 | 36109 ft | 428 kts | 331° |
| 2026-04-27 20:02 | 38.89540 | 25.07920 | 36111 ft | 428 kts | 331° |
| 2026-04-27 20:02 | 38.94911 | 25.04581 | 36117 ft | 428 kts | 331° |
| 2026-04-27 20:03 | 39.00280 | 25.01238 | 36126 ft | 428 kts | 331° |
| 2026-04-27 20:03 | 39.05613 | 24.97912 | 36129 ft | 428 kts | 331° |
| 2026-04-27 20:04 | 39.10976 | 24.94559 | 36129 ft | 428 kts | 331° |
| 2026-04-27 20:04 | 39.15442 | 24.91764 | 36126 ft | 428 kts | 331° |
| 2026-04-27 20:05 | 39.21674 | 24.87856 | 36138 ft | 427 kts | 331° |
| 2026-04-27 20:05 | 39.27027 | 24.84493 | 36138 ft | 427 kts | 331° |
| 2026-04-27 20:06 | 39.32376 | 24.81127 | 36144 ft | 426 kts | 331° |
| 2026-04-27 20:06 | 39.37678 | 24.77786 | 36151 ft | 426 kts | 331° |
| 2026-04-27 20:07 | 39.43016 | 24.74416 | 36148 ft | 426 kts | 331° |
| 2026-04-27 20:07 | 39.48357 | 24.71038 | 36145 ft | 426 kts | 331° |
| 2026-04-27 20:08 | 39.53660 | 24.67679 | 36149 ft | 426 kts | 331° |
| 2026-04-27 20:08 | 39.58995 | 24.64292 | 36151 ft | 426 kts | 331° |
| 2026-04-27 20:09 | 39.64330 | 24.60901 | 36149 ft | 426 kts | 331° |
| 2026-04-27 20:09 | 39.69656 | 24.57509 | 36148 ft | 426 kts | 331° |
| 2026-04-27 20:10 | 39.74953 | 24.54129 | 36149 ft | 426 kts | 330° |
| 2026-04-27 20:10 | 39.80279 | 24.50725 | 36147 ft | 427 kts | 330° |
| 2026-04-27 20:11 | 39.85616 | 24.47310 | 36148 ft | 427 kts | 330° |
| 2026-04-27 20:11 | 39.90954 | 24.43886 | 36147 ft | 427 kts | 331° |
| 2026-04-27 20:12 | 39.95362 | 24.41057 | 36150 ft | 427 kts | 330° |
| 2026-04-27 20:12 | 40.01594 | 24.37050 | 36166 ft | 427 kts | 330° |
| 2026-04-27 20:13 | 40.06891 | 24.33633 | 36165 ft | 426 kts | 330° |
| 2026-04-27 20:13 | 40.12206 | 24.30200 | 36168 ft | 426 kts | 330° |
| 2026-04-27 20:14 | 40.17536 | 24.26752 | 36166 ft | 427 kts | 330° |
| 2026-04-27 20:14 | 40.22872 | 24.23294 | 36166 ft | 427 kts | 330° |
| 2026-04-27 20:15 | 40.28160 | 24.19860 | 36166 ft | 427 kts | 330° |
| 2026-04-27 20:15 | 40.33486 | 24.16398 | 36172 ft | 426 kts | 330° |
| 2026-04-27 20:16 | 40.38796 | 24.12940 | 36174 ft | 426 kts | 330° |
| 2026-04-27 20:16 | 40.44106 | 24.09476 | 36176 ft | 426 kts | 330° |
| 2026-04-27 20:17 | 40.49417 | 24.06001 | 36171 ft | 426 kts | 330° |
| 2026-04-27 20:17 | 40.53822 | 24.03116 | 36174 ft | 425 kts | 330° |
| 2026-04-27 20:18 | 40.59987 | 23.99073 | 36183 ft | 425 kts | 330° |
| 2026-04-27 20:18 | 40.65278 | 23.95597 | 36186 ft | 424 kts | 330° |
| 2026-04-27 20:19 | 40.70562 | 23.92112 | 36189 ft | 423 kts | 330° |
| 2026-04-27 20:19 | 40.75801 | 23.88659 | 36188 ft | 423 kts | 330° |
| 2026-04-27 20:20 | 40.80191 | 23.85763 | 36180 ft | 423 kts | 330° |
| 2026-04-27 20:20 | 40.85458 | 23.82271 | 36187 ft | 423 kts | 330° |
| 2026-04-27 20:21 | 40.90740 | 23.78769 | 36185 ft | 423 kts | 330° |
| 2026-04-27 20:21 | 40.95978 | 23.75293 | 36184 ft | 423 kts | 330° |
| 2026-04-27 20:22 | 41.01254 | 23.71782 | 36180 ft | 424 kts | 330° |
| 2026-04-27 20:22 | 41.06498 | 23.68286 | 36187 ft | 423 kts | 330° |
| 2026-04-27 20:23 | 41.11756 | 23.64775 | 36186 ft | 423 kts | 330° |
| 2026-04-27 20:23 | 41.17021 | 23.61255 | 36188 ft | 423 kts | 330° |
| 2026-04-27 20:24 | 41.22276 | 23.57732 | 36182 ft | 422 kts | 330° |
| 2026-04-27 20:24 | 41.27525 | 23.54208 | 36186 ft | 422 kts | 330° |
| 2026-04-27 20:25 | 41.32732 | 23.50705 | 36176 ft | 422 kts | 330° |
| 2026-04-27 20:25 | 41.37972 | 23.47174 | 36188 ft | 421 kts | 330° |
| 2026-04-27 20:26 | 41.43202 | 23.43678 | 36181 ft | 421 kts | 331° |
| 2026-04-27 20:26 | 41.48479 | 23.40250 | 36180 ft | 420 kts | 331° |
| 2026-04-27 20:27 | 41.53745 | 23.36834 | 36196 ft | 420 kts | 331° |
| 2026-04-27 20:27 | 41.58970 | 23.33430 | 36173 ft | 420 kts | 331° |
| 2026-04-27 20:28 | 41.64230 | 23.29982 | 36176 ft | 420 kts | 331° |
| 2026-04-27 20:28 | 41.68593 | 23.27120 | 36172 ft | 420 kts | 331° |
| 2026-04-27 20:29 | 41.74692 | 23.23111 | 36174 ft | 420 kts | 331° |
| 2026-04-27 20:29 | 41.79951 | 23.19647 | 36177 ft | 420 kts | 330° |
| 2026-04-27 20:30 | 41.85172 | 23.16202 | 36173 ft | 420 kts | 330° |
| 2026-04-27 20:30 | 41.90416 | 23.12736 | 36173 ft | 420 kts | 330° |
| 2026-04-27 20:31 | 41.95668 | 23.09256 | 36175 ft | 420 kts | 330° |
| 2026-04-27 20:31 | 42.00909 | 23.05777 | 36170 ft | 420 kts | 330° |
| 2026-04-27 20:32 | 42.06156 | 23.02292 | 36169 ft | 419 kts | 330° |
| 2026-04-27 20:32 | 42.11382 | 22.98812 | 36162 ft | 419 kts | 330° |
| 2026-04-27 20:33 | 42.16568 | 22.95352 | 36166 ft | 418 kts | 330° |
| 2026-04-27 20:33 | 42.21783 | 22.91865 | 36164 ft | 418 kts | 330° |
| 2026-04-27 20:34 | 42.26994 | 22.88376 | 36163 ft | 418 kts | 330° |
| 2026-04-27 20:34 | 42.32210 | 22.84875 | 36166 ft | 417 kts | 330° |
| 2026-04-27 20:35 | 42.37382 | 22.81394 | 36182 ft | 417 kts | 330° |
| 2026-04-27 20:35 | 42.42580 | 22.77888 | 36175 ft | 417 kts | 330° |
| 2026-04-27 20:36 | 42.47785 | 22.74374 | 36181 ft | 417 kts | 330° |
| 2026-04-27 20:36 | 42.52957 | 22.70873 | 36176 ft | 418 kts | 330° |
| 2026-04-27 20:37 | 42.58159 | 22.67345 | 36172 ft | 418 kts | 330° |
| 2026-04-27 20:37 | 42.63370 | 22.63807 | 36179 ft | 417 kts | 330° |
| 2026-04-27 20:38 | 42.68571 | 22.60264 | 36171 ft | 417 kts | 330° |
| 2026-04-27 20:38 | 42.73738 | 22.56736 | 36169 ft | 417 kts | 330° |
| 2026-04-27 20:39 | 42.78947 | 22.53175 | 36165 ft | 418 kts | 330° |
| 2026-04-27 20:39 | 42.84115 | 22.49632 | 36156 ft | 418 kts | 329° |
| 2026-04-27 20:40 | 42.89062 | 22.45540 | 36160 ft | 415 kts | 324° |
| 2026-04-27 20:40 | 42.93876 | 22.41156 | 36154 ft | 415 kts | 323° |
| 2026-04-27 20:41 | 42.98703 | 22.36767 | 36148 ft | 416 kts | 324° |
| 2026-04-27 20:41 | 43.03520 | 22.32432 | 36147 ft | 416 kts | 324° |
| 2026-04-27 20:42 | 43.08365 | 22.28087 | 36144 ft | 416 kts | 324° |
| 2026-04-27 20:42 | 43.13188 | 22.23758 | 36134 ft | 417 kts | 324° |
| 2026-04-27 20:43 | 43.18035 | 22.19401 | 36146 ft | 416 kts | 324° |
| 2026-04-27 20:43 | 43.22868 | 22.15044 | 36132 ft | 415 kts | 324° |
| 2026-04-27 20:44 | 43.27604 | 22.10773 | 36162 ft | 391 kts | 324° |
| 2026-04-27 20:44 | 43.32035 | 22.06768 | 36147 ft | 373 kts | 324° |
| 2026-04-27 20:45 | 43.36304 | 22.02897 | 36090 ft | 362 kts | 324° |
| 2026-04-27 20:45 | 43.40468 | 21.99112 | 36085 ft | 360 kts | 324° |
| 2026-04-27 20:46 | 43.44641 | 21.95316 | 36132 ft | 361 kts | 324° |
| 2026-04-27 20:46 | 43.48852 | 21.91478 | 36134 ft | 365 kts | 324° |
| 2026-04-27 20:47 | 43.53142 | 21.87562 | 36133 ft | 375 kts | 324° |
| 2026-04-27 20:47 | 43.57569 | 21.83515 | 36148 ft | 386 kts | 324° |
| 2026-04-27 20:48 | 43.61333 | 21.80067 | 36150 ft | 395 kts | 324° |
| 2026-04-27 20:48 | 43.66738 | 21.75108 | 36148 ft | 406 kts | 324° |
| 2026-04-27 20:49 | 43.71473 | 21.70759 | 36144 ft | 415 kts | 324° |
| 2026-04-27 20:49 | 43.76317 | 21.66299 | 36135 ft | 419 kts | 324° |
| 2026-04-27 20:50 | 43.81185 | 21.61807 | 36129 ft | 421 kts | 324° |
| 2026-04-27 20:50 | 43.86031 | 21.57327 | 36143 ft | 422 kts | 324° |
| 2026-04-27 20:51 | 43.90912 | 21.52806 | 36153 ft | 420 kts | 324° |
| 2026-04-27 20:51 | 43.95773 | 21.48292 | 36150 ft | 418 kts | 324° |
| 2026-04-27 20:52 | 44.00570 | 21.43831 | 36145 ft | 417 kts | 324° |
| 2026-04-27 20:52 | 44.05407 | 21.39403 | 36149 ft | 415 kts | 325° |
| 2026-04-27 20:53 | 44.10247 | 21.35013 | 36142 ft | 413 kts | 325° |
| 2026-04-27 20:53 | 44.15023 | 21.30664 | 36146 ft | 411 kts | 325° |
| 2026-04-27 20:54 | 44.22193 | 21.24106 | 36157 ft | 409 kts | 325° |
| 2026-04-27 20:55 | 44.26949 | 21.19740 | 36158 ft | 409 kts | 325° |
| 2026-04-27 20:55 | 44.31669 | 21.15404 | 36157 ft | 408 kts | 325° |
| 2026-04-27 20:56 | 44.36423 | 21.11027 | 36159 ft | 409 kts | 325° |
| 2026-04-27 20:56 | 44.41183 | 21.06633 | 36158 ft | 409 kts | 325° |
| 2026-04-27 20:57 | 44.45911 | 21.02263 | 36158 ft | 410 kts | 325° |
| 2026-04-27 20:57 | 44.50675 | 20.97849 | 36159 ft | 411 kts | 325° |
| 2026-04-27 20:58 | 44.55448 | 20.93416 | 36157 ft | 411 kts | 325° |
| 2026-04-27 20:58 | 44.60200 | 20.88998 | 36155 ft | 412 kts | 325° |
| 2026-04-27 20:59 | 44.64983 | 20.84542 | 36156 ft | 412 kts | 325° |
| 2026-04-27 20:59 | 44.69755 | 20.80083 | 36156 ft | 412 kts | 325° |
| 2026-04-27 21:00 | 44.74475 | 20.75581 | 36155 ft | 411 kts | 323° |
| 2026-04-27 21:00 | 44.79078 | 20.70765 | 36158 ft | 411 kts | 322° |
| 2026-04-27 21:01 | 44.83647 | 20.65908 | 36156 ft | 410 kts | 322° |
| 2026-04-27 21:01 | 44.88176 | 20.61122 | 36156 ft | 409 kts | 322° |
| 2026-04-27 21:02 | 44.92754 | 20.56306 | 36158 ft | 409 kts | 322° |
| 2026-04-27 21:02 | 44.97285 | 20.51537 | 36157 ft | 407 kts | 322° |
| 2026-04-27 21:03 | 45.01833 | 20.46739 | 36150 ft | 406 kts | 322° |
| 2026-04-27 21:03 | 45.06356 | 20.41964 | 36159 ft | 405 kts | 322° |
| 2026-04-27 21:04 | 45.10840 | 20.37217 | 36159 ft | 405 kts | 322° |
| 2026-04-27 21:04 | 45.15354 | 20.32425 | 36155 ft | 404 kts | 322° |
| 2026-04-27 21:05 | 45.19863 | 20.27635 | 36158 ft | 404 kts | 322° |
| 2026-04-27 21:05 | 45.24330 | 20.22877 | 36165 ft | 403 kts | 323° |
| 2026-04-27 21:06 | 45.28819 | 20.18087 | 36157 ft | 403 kts | 323° |
| 2026-04-27 21:06 | 45.33305 | 20.13292 | 36154 ft | 402 kts | 323° |
| 2026-04-27 21:07 | 45.37746 | 20.08534 | 36159 ft | 401 kts | 322° |
| 2026-04-27 21:07 | 45.42206 | 20.03745 | 36154 ft | 401 kts | 322° |
| 2026-04-27 21:08 | 45.46631 | 19.98982 | 36153 ft | 400 kts | 322° |
| 2026-04-27 21:08 | 45.51070 | 19.94199 | 36156 ft | 399 kts | 322° |
| 2026-04-27 21:09 | 45.54750 | 19.90225 | 36156 ft | 398 kts | 322° |
| 2026-04-27 21:09 | 45.59167 | 19.85445 | 36158 ft | 398 kts | 322° |
| 2026-04-27 21:10 | 45.63584 | 19.80658 | 36158 ft | 399 kts | 322° |
| 2026-04-27 21:10 | 45.68007 | 19.75856 | 36155 ft | 398 kts | 322° |
| 2026-04-27 21:11 | 45.72418 | 19.71053 | 36158 ft | 398 kts | 322° |
| 2026-04-27 21:11 | 45.76801 | 19.66270 | 36167 ft | 398 kts | 322° |
| 2026-04-27 21:12 | 45.81211 | 19.61447 | 36166 ft | 398 kts | 322° |
| 2026-04-27 21:12 | 45.85624 | 19.56614 | 36165 ft | 399 kts | 322° |
| 2026-04-27 21:13 | 45.90008 | 19.51801 | 36169 ft | 399 kts | 322° |
| 2026-04-27 21:13 | 45.94421 | 19.46947 | 36168 ft | 399 kts | 322° |
| 2026-04-27 21:14 | 45.98837 | 19.42079 | 36169 ft | 399 kts | 322° |
| 2026-04-27 21:14 | 46.03227 | 19.37235 | 36169 ft | 400 kts | 322° |
| 2026-04-27 21:15 | 46.07628 | 19.32299 | 36166 ft | 400 kts | 321° |
| 2026-04-27 21:15 | 46.11952 | 19.27327 | 36165 ft | 399 kts | 321° |
| 2026-04-27 21:16 | 46.16286 | 19.22323 | 36166 ft | 398 kts | 321° |
| 2026-04-27 21:16 | 46.20625 | 19.17319 | 36166 ft | 398 kts | 321° |
| 2026-04-27 21:17 | 46.24925 | 19.12352 | 36169 ft | 398 kts | 321° |
| 2026-04-27 21:17 | 46.29259 | 19.07340 | 36175 ft | 397 kts | 320° |
| 2026-04-27 21:18 | 46.33543 | 19.02371 | 36174 ft | 397 kts | 320° |
| 2026-04-27 21:18 | 46.37869 | 18.97349 | 36165 ft | 398 kts | 320° |
| 2026-04-27 21:19 | 46.42193 | 18.92318 | 36167 ft | 398 kts | 320° |
| 2026-04-27 21:19 | 46.46480 | 18.87314 | 36168 ft | 398 kts | 320° |
| 2026-04-27 21:20 | 46.52954 | 18.79748 | 36170 ft | 398 kts | 320° |
| 2026-04-27 21:20 | 46.57261 | 18.74700 | 36156 ft | 398 kts | 320° |
| 2026-04-27 21:21 | 46.61583 | 18.69622 | 36164 ft | 398 kts | 320° |
| 2026-04-27 21:21 | 46.65881 | 18.64562 | 36167 ft | 399 kts | 320° |
| 2026-04-27 21:22 | 46.70176 | 18.59494 | 36167 ft | 399 kts | 320° |
| 2026-04-27 21:22 | 46.74486 | 18.54397 | 36163 ft | 399 kts | 320° |
| 2026-04-27 21:23 | 46.78799 | 18.49285 | 36165 ft | 399 kts | 320° |
| 2026-04-27 21:23 | 46.83108 | 18.44170 | 36168 ft | 399 kts | 320° |
| 2026-04-27 21:24 | 46.87416 | 18.39044 | 36164 ft | 398 kts | 320° |
| 2026-04-27 21:24 | 46.91682 | 18.33956 | 36165 ft | 397 kts | 320° |
| 2026-04-27 21:25 | 46.95965 | 18.28837 | 36173 ft | 397 kts | 320° |
| 2026-04-27 21:25 | 47.00214 | 18.23749 | 36177 ft | 396 kts | 319° |
| 2026-04-27 21:26 | 47.04491 | 18.18617 | 36172 ft | 396 kts | 319° |
| 2026-04-27 21:26 | 47.08688 | 18.13346 | 36168 ft | 396 kts | 317° |
| 2026-04-27 21:27 | 47.12751 | 18.07880 | 36164 ft | 396 kts | 316° |
| 2026-04-27 21:27 | 47.16797 | 18.02429 | 36169 ft | 396 kts | 316° |
| 2026-04-27 21:28 | 47.20882 | 17.96957 | 36171 ft | 396 kts | 316° |
| 2026-04-27 21:28 | 47.24948 | 17.91518 | 36178 ft | 396 kts | 316° |
| 2026-04-27 21:29 | 47.29035 | 17.86044 | 36177 ft | 397 kts | 316° |
| 2026-04-27 21:29 | 47.33120 | 17.80562 | 36179 ft | 397 kts | 316° |
| 2026-04-27 21:30 | 47.37209 | 17.75059 | 36192 ft | 397 kts | 316° |
| 2026-04-27 21:30 | 47.41268 | 17.69585 | 36187 ft | 397 kts | 316° |
| 2026-04-27 21:31 | 47.45358 | 17.64062 | 36180 ft | 398 kts | 316° |
| 2026-04-27 21:31 | 47.49420 | 17.58562 | 36180 ft | 398 kts | 316° |
| 2026-04-27 21:32 | 47.53503 | 17.53020 | 36190 ft | 398 kts | 316° |
| 2026-04-27 21:32 | 47.57576 | 17.47483 | 36188 ft | 397 kts | 316° |
| 2026-04-27 21:33 | 47.61649 | 17.41929 | 36183 ft | 397 kts | 316° |
| 2026-04-27 21:33 | 47.65650 | 17.36348 | 36185 ft | 397 kts | 315° |
| 2026-04-27 21:34 | 47.69631 | 17.30655 | 36181 ft | 396 kts | 315° |
| 2026-04-27 21:34 | 47.73611 | 17.24971 | 36188 ft | 396 kts | 315° |
| 2026-04-27 21:35 | 47.77570 | 17.19317 | 36187 ft | 396 kts | 315° |
| 2026-04-27 21:35 | 47.81557 | 17.13615 | 36180 ft | 397 kts | 315° |
| 2026-04-27 21:36 | 47.85299 | 17.07669 | 36191 ft | 395 kts | 309° |
| 2026-04-27 21:36 | 47.88842 | 17.01378 | 36180 ft | 395 kts | 309° |
| 2026-04-27 21:37 | 47.92380 | 16.95091 | 36181 ft | 395 kts | 309° |
| 2026-04-27 21:37 | 47.95896 | 16.88866 | 36185 ft | 395 kts | 309° |
| 2026-04-27 21:38 | 47.99442 | 16.82581 | 36185 ft | 395 kts | 309° |
| 2026-04-27 21:38 | 48.02982 | 16.76299 | 36190 ft | 395 kts | 309° |
| 2026-04-27 21:39 | 48.06517 | 16.70008 | 36181 ft | 394 kts | 308° |
| 2026-04-27 21:39 | 48.10042 | 16.63722 | 36185 ft | 394 kts | 308° |
| 2026-04-27 21:40 | 48.13493 | 16.57417 | 36184 ft | 393 kts | 307° |
| 2026-04-27 21:40 | 48.16914 | 16.51020 | 36181 ft | 393 kts | 307° |
| 2026-04-27 21:41 | 48.20330 | 16.44625 | 36180 ft | 392 kts | 307° |
| 2026-04-27 21:41 | 48.23741 | 16.38232 | 36186 ft | 392 kts | 307° |
| 2026-04-27 21:42 | 48.27130 | 16.31878 | 36181 ft | 391 kts | 307° |
| 2026-04-27 21:42 | 48.30534 | 16.25479 | 36186 ft | 391 kts | 307° |
| 2026-04-27 21:43 | 48.33934 | 16.19073 | 36186 ft | 391 kts | 307° |
| 2026-04-27 21:43 | 48.37311 | 16.12699 | 36182 ft | 391 kts | 307° |
| 2026-04-27 21:44 | 48.40702 | 16.06281 | 36183 ft | 392 kts | 307° |
| 2026-04-27 21:44 | 48.44090 | 15.99855 | 36188 ft | 392 kts | 307° |
| 2026-04-27 21:45 | 48.47486 | 15.93402 | 36186 ft | 392 kts | 307° |
| 2026-04-27 21:45 | 48.50850 | 15.86990 | 36176 ft | 393 kts | 307° |
| 2026-04-27 21:46 | 48.54239 | 15.80512 | 36188 ft | 393 kts | 307° |
| 2026-04-27 21:46 | 48.57629 | 15.74019 | 36185 ft | 393 kts | 307° |
| 2026-04-27 21:47 | 48.60993 | 15.67560 | 36181 ft | 394 kts | 307° |
| 2026-04-27 21:47 | 48.64373 | 15.61052 | 36179 ft | 393 kts | 307° |
| 2026-04-27 21:48 | 48.67751 | 15.54536 | 36186 ft | 393 kts | 307° |
| 2026-04-27 21:48 | 48.71123 | 15.48013 | 36181 ft | 393 kts | 306° |
| 2026-04-27 21:49 | 48.74492 | 15.41483 | 36177 ft | 393 kts | 306° |
| 2026-04-27 21:49 | 48.77861 | 15.34936 | 36173 ft | 393 kts | 306° |
| 2026-04-27 21:50 | 48.81205 | 15.28421 | 36177 ft | 393 kts | 306° |
| 2026-04-27 21:50 | 48.84565 | 15.21860 | 36176 ft | 393 kts | 306° |
| 2026-04-27 21:51 | 48.87904 | 15.15324 | 36176 ft | 393 kts | 306° |
| 2026-04-27 21:51 | 48.91380 | 15.08905 | 36174 ft | 394 kts | 311° |
| 2026-04-27 21:52 | 48.95186 | 15.02884 | 36182 ft | 394 kts | 312° |
| 2026-04-27 21:52 | 48.99018 | 14.96894 | 36172 ft | 394 kts | 312° |
| 2026-04-27 21:53 | 49.02809 | 14.90906 | 36230 ft | 397 kts | 311° |
| 2026-04-27 21:53 | 49.04728 | 14.87853 | 36379 ft | 399 kts | 311° |
| 2026-04-27 21:53 | 49.06643 | 14.84795 | 36638 ft | 398 kts | 311° |
| 2026-04-27 21:54 | 49.08555 | 14.81734 | 36886 ft | 397 kts | 311° |
| 2026-04-27 21:54 | 49.10457 | 14.78688 | 37215 ft | 394 kts | 311° |
| 2026-04-27 21:54 | 49.12348 | 14.75656 | 37540 ft | 391 kts | 311° |
| 2026-04-27 21:54 | 49.14203 | 14.72677 | 37735 ft | 392 kts | 311° |
| 2026-04-27 21:55 | 49.16086 | 14.69647 | 37849 ft | 394 kts | 311° |
| 2026-04-27 21:55 | 49.17981 | 14.66595 | 38007 ft | 394 kts | 311° |